Cherokee, IA

10:00 PM CDT on September 03, 2015 (GMT -0500)
Cherokee Municipal | | Change Station
CLOSE
Current Station
Airport
Location: Cherokee,
Elevation: 1227 ft
Nearby Weather Stations

Elev 1227 ft 42.73 °N, 95.56 °W | Updated 25 minutes ago

Clear
Clear
77 °F
Feels Like 77 °F
N
4
Wind Variable Wind from South

Today
High -- | Low -- °F
--% Chance of Precip.
Yesterday
High -- | Low -- °F
Precip. -- in
6:48 AM 7:53 PM
Waning Gibbous, 64% visible
Pressure 29.84 in
Visibility 10.0 miles
Clouds Clear
Dew Point 74 °F
Humidity 93%
Rainfall 0.00 in
Snow Depth Not available.
UV 0 out of 12
Pollen 10.80 out of 12
Air Quality Not available.
Flu Activity Not available.
METAR KCKP 040235Z AUTO 19003KT 10SM CLR 25/24 A2984 RMK AO2 T02480236
Pressure 29.84 in
Visibility 10.0 miles
Clouds Clear
Dew Point 74 °F
Humidity 93%
Rainfall 0.00 in
Snow Depth Not available.
UV 0 out of 12
Pollen 10.80 out of 12
Air Quality Not available.
Flu Activity Not available.
METAR KCKP 040235Z AUTO 19003KT 10SM CLR 25/24 A2984 RMK AO2 T02480236

10-Day Weather Forecast

×

Almanac

Astronomy

Sep. 03, 2015 Rise Set
Actual Time
Civil Twilight
Nautical Twilight
Astronomical Twilight
Moon
Length of Visible Light
Length of Day
Tomorrow will be .
, % of the Moon is Illuminated

Today's Extremes

State Highs State Lows

Community

WunderPhotos

Upload Photos

1,852,108 photos uploaded!

WunderBlogs® & News

Nearby

Air Quality

  Air Quality AQ Index Pollutant
Not available.

Snow Depth

Station Depth Elevation

Earthquake Activity

City Distance Mag. Time & Date
Minimum magnitude displayed is 2.5.

Coastal Water Temperatures

Place Temperature

Stations

Nearby Weather Stations

Station Location Temp. Windchill Dew Point Humidity Wind Precip. Elev Updated Type